Time;durP1;ratioP1;P1;durP2;ratioP2;P2;SDS_P1;SDS_P2;PMS_P1;PMS_P2;Temp;Humidity;BMP_temperature;BMP_pressure;BME280_temperature;BME280_humidity;BME280_pressure;Samples;Min_cycle;Max_cycle;Signal;HPM_P1;HPM_P2
2022/05/14 00:00:30;;;;;;;5.33;4.37;;;13.70;90.80;;;;;;5016148;28;20274;-63
2022/05/14 00:02:56;;;;;;;5.37;4.60;;;13.60;91.00;;;;;;5016474;28;20508;-63
2022/05/14 00:05:24;;;;;;;7.93;4.90;;;13.60;90.90;;;;;;5028486;28;20220;-63
2022/05/14 00:07:51;;;;;;;4.73;4.33;;;13.60;90.70;;;;;;4996303;28;20185;-63
2022/05/14 00:10:18;;;;;;;7.17;5.40;;;13.50;90.80;;;;;;4995769;28;20181;-63
2022/05/14 00:15:28;;;;;;;4.83;4.27;;;13.50;90.90;;;;;;5016055;28;20183;-63
2022/05/14 00:17:54;;;;;;;6.30;5.20;;;13.40;91.00;;;;;;4999567;28;20196;-63
2022/05/14 00:20:23;;;;;;;4.90;4.37;;;13.40;90.70;;;;;;4999148;28;20196;-63
2022/05/14 00:22:50;;;;;;;5.60;4.17;;;13.30;90.70;;;;;;5016609;28;20176;-63
2022/05/14 00:25:16;;;;;;;7.90;4.80;;;13.30;90.60;;;;;;5032036;28;20211;-63
2022/05/14 00:27:44;;;;;;;5.90;4.43;;;13.30;90.60;;;;;;5014829;28;20187;-63
2022/05/14 00:30:12;;;;;;;4.20;3.83;;;13.30;90.70;;;;;;5016423;28;20195;-63
2022/05/14 00:32:38;;;;;;;9.10;3.60;;;13.30;90.70;;;;;;5014956;28;20188;-63
2022/05/14 00:35:06;;;;;;;6.60;3.53;;;13.30;90.80;;;;;;5015376;28;20294;-63
2022/05/14 00:37:32;;;;;;;4.13;3.77;;;13.20;90.70;;;;;;5015344;28;20176;-63
2022/05/14 00:39:59;;;;;;;7.10;4.50;;;13.20;90.90;;;;;;5015241;28;20246;-63
2022/05/14 00:42:24;;;;;;;7.70;4.47;;;13.20;90.70;;;;;;5031093;28;20195;-63
2022/05/14 00:44:50;;;;;;;4.50;3.83;;;13.10;90.80;;;;;;5031776;28;20220;-63
2022/05/14 00:47:18;;;;;;;7.80;4.50;;;13.10;90.80;;;;;;5010470;28;20188;-63
2022/05/14 00:49:44;;;;;;;6.37;4.20;;;13.10;90.80;;;;;;4998800;28;20184;-63
2022/05/14 00:52:15;;;;;;;6.53;4.77;;;13.10;90.70;;;;;;4998630;28;20199;-63
2022/05/14 00:55:00;;;;;;;5.13;3.37;;;13.00;90.50;;;;;;5015164;28;20172;-63
2022/05/14 00:57:31;;;;;;;7.13;3.77;;;13.00;90.70;;;;;;5014425;28;20192;-63
2022/05/14 00:59:59;;;;;;;4.03;3.00;;;13.00;90.70;;;;;;5014750;28;20172;-63
2022/05/14 01:02:25;;;;;;;9.43;4.00;;;12.90;90.70;;;;;;5011849;28;20193;-63
2022/05/14 01:04:51;;;;;;;5.27;3.63;;;12.90;90.60;;;;;;5031152;28;20212;-63
2022/05/14 01:07:20;;;;;;;5.40;3.60;;;12.80;90.70;;;;;;5030893;28;20218;-63
2022/05/14 01:09:50;;;;;;;7.17;3.97;;;12.80;90.70;;;;;;5014666;28;20180;-63
2022/05/14 01:12:19;;;;;;;3.70;3.40;;;12.80;90.80;;;;;;5005320;28;20192;-63
2022/05/14 01:14:45;;;;;;;4.90;3.40;;;12.80;90.80;;;;;;4995623;28;20185;-63
2022/05/14 01:17:11;;;;;;;5.20;3.57;;;12.80;90.60;;;;;;4994803;28;20188;-63
2022/05/14 01:19:37;;;;;;;3.73;3.43;;;12.70;90.60;;;;;;5027791;28;20279;-63
2022/05/14 01:22:32;;;;;;;5.50;3.40;;;12.80;90.70;;;;;;5013737;28;20180;-64
2022/05/14 01:27:50;;;;;;;4.50;3.47;;;12.70;90.90;;;;;;5015250;28;20202;-64
2022/05/14 01:30:17;;;;;;;4.00;3.57;;;12.70;90.80;;;;;;4998138;28;20249;-64
2022/05/14 01:32:46;;;;;;;3.93;3.53;;;12.70;90.70;;;;;;4997908;28;20192;-64
2022/05/14 01:35:16;;;;;;;4.97;4.37;;;12.60;90.70;;;;;;5014041;28;20187;-64
2022/05/14 01:37:42;;;;;;;4.37;3.40;;;12.60;90.50;;;;;;5012572;28;20243;-63
2022/05/14 01:40:08;;;;;;;6.50;4.00;;;12.60;90.70;;;;;;5011940;28;20310;-62
2022/05/14 01:42:34;;;;;;;7.77;3.67;;;12.50;90.80;;;;;;5030995;28;20238;-62
2022/05/14 01:44:59;;;;;;;4.70;3.67;;;12.50;90.80;;;;;;5030241;28;20216;-62
2022/05/14 01:47:25;;;;;;;4.93;3.43;;;12.50;90.90;;;;;;5024908;28;20210;-63
2022/05/14 01:49:51;;;;;;;6.47;3.77;;;12.40;90.80;;;;;;5046701;28;20191;-63
2022/05/14 01:52:16;;;;;;;9.33;3.93;;;12.40;90.90;;;;;;5046437;28;20179;-62
2022/05/14 01:54:42;;;;;;;4.57;3.40;;;12.40;90.80;;;;;;5014411;28;20187;-62
2022/05/14 01:57:08;;;;;;;6.23;3.73;;;12.40;90.80;;;;;;4997493;28;20180;-62
2022/05/14 01:59:33;;;;;;;4.23;3.30;;;12.40;90.90;;;;;;5013938;28;20258;-63
2022/05/14 02:02:00;;;;;;;3.93;3.50;;;12.40;91.00;;;;;;5003479;28;20212;-62
2022/05/14 02:04:26;;;;;;;9.53;3.53;;;12.40;90.80;;;;;;5006902;28;20188;-63
2022/05/14 02:06:52;;;;;;;5.53;3.93;;;12.30;90.70;;;;;;5013722;28;20207;-63
2022/05/14 02:09:19;;;;;;;4.03;3.70;;;12.30;90.70;;;;;;5013365;28;20249;-63
2022/05/14 02:11:45;;;;;;;4.10;3.43;;;12.30;90.80;;;;;;5013463;28;20196;-63
2022/05/14 02:14:12;;;;;;;4.87;3.50;;;12.30;90.70;;;;;;5030240;28;20223;-63
2022/05/14 02:16:38;;;;;;;5.53;3.87;;;12.20;90.70;;;;;;5029828;28;20176;-63
2022/05/14 02:19:06;;;;;;;4.93;3.33;;;12.20;90.70;;;;;;5013765;28;20234;-63
2022/05/14 02:21:34;;;;;;;2.97;2.77;;;12.20;90.80;;;;;;5013850;28;20214;-63
2022/05/14 02:24:00;;;;;;;4.27;3.70;;;12.10;90.90;;;;;;5013593;28;20222;-63
2022/05/14 02:26:25;;;;;;;4.53;3.63;;;12.10;90.70;;;;;;5008841;28;20209;-63
2022/05/14 02:28:51;;;;;;;5.97;3.13;;;12.10;90.60;;;;;;5004365;28;20254;-63
2022/05/14 02:31:17;;;;;;;4.77;3.07;;;12.00;90.60;;;;;;4996957;28;20203;-63
2022/05/14 02:33:43;;;;;;;3.27;3.00;;;12.00;90.70;;;;;;5029856;28;20191;-63
2022/05/14 02:36:09;;;;;;;3.33;3.03;;;12.00;90.80;;;;;;5013476;28;20183;-63
2022/05/14 02:38:36;;;;;;;4.33;3.43;;;12.00;90.70;;;;;;5029225;28;20186;-63
2022/05/14 02:41:03;;;;;;;3.43;3.13;;;11.90;90.70;;;;;;5028998;28;20240;-63
2022/05/14 02:43:29;;;;;;;6.47;3.50;;;11.90;90.70;;;;;;5013240;28;20171;-63
2022/05/14 02:45:55;;;;;;;3.93;3.13;;;11.90;90.60;;;;;;5013057;28;20215;-63
2022/05/14 02:48:20;;;;;;;4.37;3.00;;;11.90;90.70;;;;;;4986474;28;20192;-63
2022/05/14 02:50:46;;;;;;;6.73;3.83;;;11.90;90.70;;;;;;5026417;28;20179;-63
2022/05/14 02:53:12;;;;;;;4.27;3.80;;;11.90;90.40;;;;;;5018872;28;20192;-63
2022/05/14 02:55:38;;;;;;;10.60;4.30;;;11.90;90.50;;;;;;4996358;28;20219;-63
2022/05/14 02:58:03;;;;;;;6.97;3.40;;;11.80;90.60;;;;;;5020864;28;20200;-63
2022/05/14 03:00:29;;;;;;;4.33;3.53;;;11.80;90.60;;;;;;5029511;28;20206;-63
2022/05/14 03:02:55;;;;;;;5.73;4.00;;;11.80;90.60;;;;;;5011711;28;20230;-63
2022/05/14 03:05:22;;;;;;;3.63;3.20;;;11.80;90.70;;;;;;4993149;28;20235;-63
2022/05/14 03:07:48;;;;;;;6.17;3.53;;;11.70;90.70;;;;;;4994266;28;20184;-64
2022/05/14 03:10:15;;;;;;;9.23;3.10;;;11.70;90.80;;;;;;5014086;28;20188;-64
2022/05/14 03:12:41;;;;;;;5.77;3.47;;;11.70;90.80;;;;;;5011621;28;20246;-64
2022/05/14 03:15:09;;;;;;;5.83;3.10;;;11.70;90.70;;;;;;5029208;28;20275;-64
2022/05/14 03:17:35;;;;;;;5.73;3.03;;;11.70;90.60;;;;;;5011863;28;20202;-64
2022/05/14 03:20:07;;;;;;;3.87;3.50;;;11.60;90.80;;;;;;5044246;28;20196;-64
2022/05/14 03:22:38;;;;;;;5.60;3.20;;;11.60;91.00;;;;;;5012802;28;20214;-64
2022/05/14 03:25:06;;;;;;;5.13;3.67;;;11.70;90.90;;;;;;5011919;28;20211;-64
2022/05/14 03:27:32;;;;;;;5.17;3.27;;;11.60;90.90;;;;;;5025309;28;20188;-63
2022/05/14 03:29:57;;;;;;;3.37;2.77;;;11.60;91.00;;;;;;4995837;28;20188;-64
2022/05/14 03:32:24;;;;;;;5.30;3.40;;;11.60;91.00;;;;;;4995442;28;20191;-64
2022/05/14 03:34:51;;;;;;;7.23;3.77;;;11.60;91.00;;;;;;4995757;28;20268;-64
2022/05/14 03:37:16;;;;;;;3.80;3.40;;;11.60;90.90;;;;;;4996637;28;20195;-63
2022/05/14 03:39:42;;;;;;;7.13;3.47;;;11.60;90.90;;;;;;5024783;28;20240;-63
2022/05/14 03:42:08;;;;;;;4.57;3.30;;;11.60;91.10;;;;;;5018442;28;20196;-63
2022/05/14 03:44:33;;;;;;;4.77;4.20;;;11.60;91.10;;;;;;5028893;28;20203;-63
2022/05/14 03:46:59;;;;;;;4.40;3.50;;;11.60;91.10;;;;;;4999144;28;20298;-64
2022/05/14 03:49:25;;;;;;;4.07;3.67;;;11.60;91.20;;;;;;5010173;28;20191;-64
2022/05/14 03:51:52;;;;;;;3.93;3.53;;;11.60;91.10;;;;;;5032176;28;20207;-64
2022/05/14 03:54:17;;;;;;;7.03;3.83;;;11.50;91.00;;;;;;5032175;28;20224;-63
2022/05/14 03:56:43;;;;;;;6.30;3.70;;;11.50;91.00;;;;;;5015739;28;20238;-63
2022/05/14 03:59:10;;;;;;;5.23;3.27;;;11.50;91.00;;;;;;5029680;28;20199;-64
2022/05/14 04:01:36;;;;;;;4.30;3.30;;;11.50;91.00;;;;;;5015570;28;20222;-63
2022/05/14 04:04:02;;;;;;;5.80;4.10;;;11.60;91.10;;;;;;5019533;28;20279;-63
2022/05/14 04:06:28;;;;;;;4.77;3.77;;;11.50;91.00;;;;;;5015853;28;20298;-63
2022/05/14 04:08:54;;;;;;;7.60;3.40;;;11.50;90.90;;;;;;5015437;28;20270;-64
2022/05/14 04:11:19;;;;;;;5.57;3.93;;;11.50;91.10;;;;;;5031866;28;20187;-63
2022/05/14 04:13:45;;;;;;;5.67;3.87;;;11.50;91.10;;;;;;5032073;28;20184;-64
2022/05/14 04:16:11;;;;;;;5.63;3.63;;;11.60;91.10;;;;;;4999055;28;20286;-64
2022/05/14 04:18:37;;;;;;;6.80;3.80;;;11.60;91.20;;;;;;5031557;28;20196;-63
2022/05/14 04:21:04;;;;;;;5.77;4.07;;;11.60;91.10;;;;;;5031787;28;20220;-64
2022/05/14 04:23:31;;;;;;;6.27;4.07;;;11.50;91.20;;;;;;5015149;28;20253;-63
2022/05/14 04:25:58;;;;;;;7.03;3.93;;;11.60;91.20;;;;;;5014960;28;20682;-62
2022/05/14 04:28:24;;;;;;;5.93;3.87;;;11.60;91.30;;;;;;5030042;28;20238;-63
2022/05/14 04:30:50;;;;;;;5.93;3.70;;;11.60;91.30;;;;;;4998106;28;20190;-62
2022/05/14 04:33:16;;;;;;;4.80;3.93;;;11.60;91.20;;;;;;4998965;28;20196;-70
2022/05/14 04:35:43;;;;;;;7.43;4.23;;;11.60;91.40;;;;;;5010712;28;20201;-68
2022/05/14 04:38:08;;;;;;;7.50;4.03;;;11.70;91.40;;;;;;5013630;28;20173;-69
2022/05/14 04:40:35;;;;;;;6.93;4.60;;;11.70;91.30;;;;;;4983140;28;20240;-70
2022/05/14 04:43:05;;;;;;;5.60;4.63;;;11.60;91.40;;;;;;5002331;28;20196;-70
2022/05/14 04:45:30;;;;;;;4.40;4.00;;;11.60;91.40;;;;;;5015075;28;20199;-70
2022/05/14 04:47:56;;;;;;;7.50;4.50;;;11.70;91.60;;;;;;5007806;28;20181;-70
2022/05/14 04:50:22;;;;;;;5.60;3.90;;;11.70;91.70;;;;;;5011994;28;20200;-69
2022/05/14 04:52:48;;;;;;;7.17;4.50;;;11.70;91.70;;;;;;4995459;28;20216;-70
2022/05/14 04:55:13;;;;;;;7.77;4.93;;;11.80;91.70;;;;;;5030271;28;20212;-70
2022/05/14 04:57:41;;;;;;;7.97;4.37;;;11.80;91.80;;;;;;4997557;28;20199;-70
2022/05/14 05:00:07;;;;;;;5.40;4.27;;;11.80;91.80;;;;;;5031731;28;20214;-69
2022/05/14 05:05:17;;;;;;;5.07;4.53;;;11.80;91.90;;;;;;5014110;28;20262;-69
2022/05/14 05:07:43;;;;;;;6.10;4.40;;;11.90;91.90;;;;;;4997491;28;20200;-70
2022/05/14 05:10:09;;;;;;;5.37;4.60;;;11.90;91.80;;;;;;5010417;28;20243;-69
2022/05/14 05:12:35;;;;;;;7.80;4.67;;;12.00;91.90;;;;;;5027298;28;20283;-66
2022/05/14 05:15:00;;;;;;;8.27;4.50;;;12.00;91.90;;;;;;5018144;28;20271;-69
2022/05/14 05:17:26;;;;;;;7.27;4.93;;;12.00;91.90;;;;;;5031032;28;20180;-69
2022/05/14 05:19:52;;;;;;;5.17;4.50;;;12.00;91.90;;;;;;5014539;28;20191;-69
2022/05/14 05:22:17;;;;;;;5.77;4.63;;;12.00;91.90;;;;;;5004310;28;20220;-68
2022/05/14 05:24:43;;;;;;;9.57;5.13;;;12.10;91.90;;;;;;5022826;28;20200;-65
2022/05/14 05:27:09;;;;;;;9.50;5.70;;;12.00;91.90;;;;;;5030279;28;20222;-65
2022/05/14 05:29:34;;;;;;;6.20;5.03;;;12.10;91.90;;;;;;4997838;28;20196;-65
2022/05/14 05:32:00;;;;;;;11.30;5.40;;;12.00;92.10;;;;;;4996704;28;20549;-69
2022/05/14 05:34:26;;;;;;;8.17;4.57;;;12.00;92.20;;;;;;5030682;28;20267;-67
2022/05/14 05:36:53;;;;;;;6.63;4.57;;;12.10;92.30;;;;;;5014116;28;20274;-67
2022/05/14 05:39:19;;;;;;;8.50;5.77;;;12.20;92.40;;;;;;5013680;28;20199;-67
2022/05/14 05:41:45;;;;;;;8.50;4.93;;;12.20;92.40;;;;;;4994272;28;20203;-75
2022/05/14 05:44:11;;;;;;;7.47;4.50;;;12.20;92.40;;;;;;5014322;28;20298;-74
2022/05/14 05:46:37;;;;;;;7.53;4.73;;;12.30;92.40;;;;;;4998050;28;20219;-72
2022/05/14 05:49:05;;;;;;;6.93;4.80;;;12.30;92.40;;;;;;4994374;28;20215;-73
2022/05/14 05:51:31;;;;;;;5.87;5.33;;;12.30;92.30;;;;;;4994188;28;20270;-74
2022/05/14 05:57:15;;;;;;;8.73;5.50;;;12.40;92.20;;;;;;5014041;28;20215;-70
2022/05/14 05:59:34;;;;;;;5.47;4.97;;;12.40;92.10;;;;;;5013885;28;20670;-74
2022/05/14 06:02:00;;;;;;;10.70;5.73;;;12.50;92.20;;;;;;4981588;28;20194;-76
2022/05/14 06:04:26;;;;;;;7.00;5.43;;;12.50;92.20;;;;;;5002379;28;20186;-77
2022/05/14 06:06:51;;;;;;;15.37;6.67;;;12.50;92.20;;;;;;4996134;28;20211;-75
2022/05/14 06:09:20;;;;;;;10.93;5.83;;;12.60;92.20;;;;;;5012565;28;20266;-76
2022/05/14 06:11:46;;;;;;;12.77;6.33;;;12.70;92.10;;;;;;5013421;28;20198;-76
2022/05/14 06:14:13;;;;;;;9.00;5.63;;;12.80;91.70;;;;;;5013557;28;20180;-75
2022/05/14 06:16:39;;;;;;;10.47;5.97;;;12.80;91.70;;;;;;5029371;28;20192;-73
2022/05/14 06:19:06;;;;;;;9.60;5.50;;;12.90;91.10;;;;;;5029830;28;20191;-72
2022/05/14 06:21:32;;;;;;;8.57;6.07;;;12.90;91.10;;;;;;5028013;28;20265;-75
2022/05/14 06:23:57;;;;;;;8.13;5.57;;;13.00;91.10;;;;;;4996919;28;20191;-74
2022/05/14 06:26:23;;;;;;;8.93;5.60;;;13.10;91.00;;;;;;4996824;28;20226;-71
2022/05/14 06:28:49;;;;;;;9.07;5.93;;;13.20;90.80;;;;;;4997785;28;20188;-73
2022/05/14 06:31:16;;;;;;;9.90;6.23;;;13.20;91.00;;;;;;4993765;28;20231;-66
2022/05/14 06:33:46;;;;;;;9.93;5.83;;;13.30;91.00;;;;;;4993580;28;20207;-67
2022/05/14 06:36:13;;;;;;;11.70;6.73;;;13.30;91.30;;;;;;4980811;28;20234;-66
2022/05/14 06:38:39;;;;;;;8.00;5.70;;;13.30;91.40;;;;;;5028032;28;20195;-66
2022/05/14 06:41:12;;;;;;;8.90;5.87;;;13.50;90.70;;;;;;5002582;28;20232;-64
2022/05/14 06:43:38;;;;;;;9.87;6.40;;;13.60;90.50;;;;;;5014209;28;20176;-65
2022/05/14 06:46:04;;;;;;;9.23;5.63;;;13.70;90.30;;;;;;5013004;28;20214;-66
2022/05/14 06:48:31;;;;;;;11.17;6.47;;;13.80;90.30;;;;;;5001311;28;20193;-66
2022/05/14 06:51:00;;;;;;;7.30;6.10;;;13.90;89.30;;;;;;4993835;28;20211;-66
2022/05/14 06:53:27;;;;;;;12.00;6.37;;;14.00;87.10;;;;;;4993355;28;20230;-66
2022/05/14 06:55:55;;;;;;;10.83;5.70;;;14.10;87.50;;;;;;5009692;28;20259;-66
2022/05/14 06:58:28;;;;;;;8.17;5.10;;;14.10;87.60;;;;;;5012502;28;20230;-66
2022/05/14 07:00:54;;;;;;;7.07;5.30;;;14.20;85.60;;;;;;5012316;28;20206;-66
2022/05/14 07:08:50;;;;;;;7.13;5.30;;;14.40;85.70;;;;;;4994039;28;20176;-66
2022/05/14 07:11:16;;;;;;;8.10;5.57;;;14.50;84.80;;;;;;5011017;28;20187;-66
2022/05/14 07:13:42;;;;;;;8.83;5.07;;;14.50;85.00;;;;;;5013241;28;20185;-66
2022/05/14 07:16:08;;;;;;;8.57;5.50;;;14.60;86.00;;;;;;5010721;28;20179;-66
2022/05/14 07:18:33;;;;;;;5.83;4.83;;;14.60;85.80;;;;;;5009547;28;20203;-66
2022/05/14 07:20:59;;;;;;;5.50;5.00;;;14.70;85.20;;;;;;5031474;28;20197;-67
2022/05/14 07:23:25;;;;;;;8.53;5.33;;;14.80;84.70;;;;;;5022110;28;20266;-66
2022/05/14 07:25:51;;;;;;;6.87;4.80;;;15.00;80.80;;;;;;4996901;28;20261;-66
2022/05/14 07:28:17;;;;;;;6.23;5.53;;;15.20;80.30;;;;;;5013514;28;20189;-65
2022/05/14 07:30:43;;;;;;;6.90;5.50;;;15.20;81.50;;;;;;4997175;28;20186;-66
2022/05/14 07:33:09;;;;;;;7.13;5.63;;;15.40;80.10;;;;;;5029771;28;20216;-66
2022/05/14 07:35:35;;;;;;;9.63;5.63;;;15.60;79.30;;;;;;5013158;28;20188;-66
2022/05/14 07:38:03;;;;;;;5.37;4.87;;;15.80;80.10;;;;;;5027892;28;20300;-66
2022/05/14 07:40:33;;;;;;;7.93;6.10;;;15.80;80.40;;;;;;5014978;28;20231;-67
2022/05/14 07:43:03;;;;;;;7.53;5.63;;;16.00;80.70;;;;;;5016436;28;20187;-67
2022/05/14 07:45:33;;;;;;;9.23;5.53;;;16.20;77.90;;;;;;5016091;28;20199;-67
2022/05/14 07:48:04;;;;;;;8.53;5.27;;;16.40;78.00;;;;;;5017219;28;20208;-67
2022/05/14 07:50:30;;;;;;;6.03;5.40;;;16.40;80.00;;;;;;5014701;28;20284;-66
2022/05/14 07:52:57;;;;;;;6.97;5.07;;;16.50;77.10;;;;;;5032576;28;20220;-66
2022/05/14 07:55:23;;;;;;;7.13;4.90;;;16.60;79.70;;;;;;5031541;28;20290;-66
2022/05/14 07:57:49;;;;;;;6.60;5.30;;;16.60;79.00;;;;;;5049121;28;20377;-67
2022/05/14 08:00:15;;;;;;;5.80;4.83;;;16.60;78.80;;;;;;5030759;28;20277;-67
2022/05/14 08:02:44;;;;;;;5.77;4.93;;;16.70;80.60;;;;;;4995230;28;20275;-67
2022/05/14 08:05:10;;;;;;;7.03;4.90;;;16.70;77.10;;;;;;4993740;28;20208;-67
2022/05/14 08:07:37;;;;;;;7.73;4.53;;;16.70;76.40;;;;;;4985979;28;20195;-67
2022/05/14 08:10:05;;;;;;;6.50;4.70;;;16.80;74.30;;;;;;5011323;28;20173;-67
2022/05/14 08:12:40;;;;;;;7.53;4.93;;;16.80;75.30;;;;;;5000587;28;20299;-67
2022/05/14 08:15:07;;;;;;;5.27;4.57;;;16.80;75.90;;;;;;5014119;28;20183;-67
2022/05/14 08:17:33;;;;;;;4.27;3.87;;;16.80;72.50;;;;;;5013500;28;20673;-67
2022/05/14 08:19:58;;;;;;;4.70;3.77;;;16.90;71.10;;;;;;5047613;28;20212;-67
2022/05/14 08:25:09;;;;;;;5.87;4.30;;;16.90;73.70;;;;;;5007761;28;20176;-67
2022/05/14 08:27:44;;;;;;;6.53;4.23;;;16.90;73.50;;;;;;5028346;28;20227;-67
2022/05/14 08:30:19;;;;;;;6.27;4.53;;;16.90;75.90;;;;;;4998111;28;20202;-67
2022/05/14 08:32:44;;;;;;;6.50;4.60;;;17.00;74.00;;;;;;5011810;28;20233;-67
2022/05/14 08:35:12;;;;;;;4.50;4.10;;;17.00;75.00;;;;;;4998355;28;20191;-67
2022/05/14 08:37:37;;;;;;;6.50;4.10;;;17.10;72.70;;;;;;5013231;28;20230;-67
2022/05/14 08:40:13;;;;;;;5.20;4.20;;;17.10;74.10;;;;;;5010962;28;20275;-67
2022/05/14 08:42:39;;;;;;;7.90;4.93;;;17.40;75.20;;;;;;5013107;28;20245;-67
2022/05/14 08:45:06;;;;;;;8.13;5.17;;;17.50;70.50;;;;;;5012319;28;20183;-67
2022/05/14 08:47:43;;;;;;;5.30;4.17;;;17.60;72.00;;;;;;5011613;28;20187;-67
2022/05/14 08:50:09;;;;;;;4.70;4.20;;;17.70;73.50;;;;;;5012016;28;20233;-67
2022/05/14 08:52:37;;;;;;;6.63;4.00;;;17.80;73.00;;;;;;4996035;28;20207;-67
2022/05/14 08:55:16;;;;;;;6.83;3.90;;;17.90;71.20;;;;;;5012531;28;20184;-67
2022/05/14 08:57:57;;;;;;;5.30;4.80;;;18.00;70.30;;;;;;5002751;28;20188;-67
2022/05/14 09:00:23;;;;;;;6.87;4.67;;;18.10;69.30;;;;;;5026653;28;20238;-67
2022/05/14 09:02:51;;;;;;;6.13;3.80;;;18.30;70.60;;;;;;4995973;28;20184;-67
2022/05/14 09:05:30;;;;;;;6.33;3.97;;;18.40;69.40;;;;;;5013165;28;20253;-67
2022/05/14 09:07:55;;;;;;;4.23;3.90;;;18.40;69.60;;;;;;4997946;28;20215;-67
2022/05/14 09:10:30;;;;;;;5.83;3.63;;;18.50;68.50;;;;;;4993147;28;20181;-67
2022/05/14 09:13:00;;;;;;;6.23;3.57;;;18.60;69.70;;;;;;4993380;28;20152;-67
2022/05/14 09:15:31;;;;;;;3.50;3.13;;;18.70;70.80;;;;;;5010707;28;20211;-67
2022/05/14 09:18:06;;;;;;;4.37;3.00;;;18.70;69.60;;;;;;5012650;28;20180;-67
2022/05/14 09:20:43;;;;;;;5.07;3.37;;;18.80;63.70;;;;;;5012722;28;20259;-67
2022/05/14 09:23:09;;;;;;;4.77;3.07;;;19.00;64.50;;;;;;5012658;28;20276;-67
2022/05/14 09:25:41;;;;;;;4.03;3.20;;;19.10;65.50;;;;;;4991845;28;20279;-67
2022/05/14 09:28:47;;;;;;;3.63;3.33;;;19.20;64.80;;;;;;5009589;28;20180;-67
2022/05/14 09:31:26;;;;;;;5.67;3.27;;;19.30;64.70;;;;;;5010659;28;20278;-67
2022/05/14 09:34:11;;;;;;;3.60;2.80;;;19.40;64.70;;;;;;5012064;28;20167;-67
2022/05/14 09:36:37;;;;;;;4.87;3.20;;;19.50;63.40;;;;;;5011059;28;20300;-67
2022/05/14 09:39:11;;;;;;;4.23;2.77;;;19.60;64.40;;;;;;5010961;28;20176;-67
2022/05/14 09:41:49;;;;;;;5.50;3.03;;;19.80;60.60;;;;;;5011954;28;20233;-67
2022/05/14 09:44:27;;;;;;;4.27;3.03;;;19.90;58.80;;;;;;5012096;28;20182;-67
2022/05/14 09:47:06;;;;;;;4.77;3.40;;;20.00;60.20;;;;;;5010812;28;20227;-67
2022/05/14 09:49:32;;;;;;;6.00;3.40;;;20.10;60.30;;;;;;5012223;28;20172;-67
2022/05/14 09:52:05;;;;;;;4.03;2.80;;;20.10;59.30;;;;;;4991453;28;20199;-67
2022/05/14 09:54:45;;;;;;;2.97;2.77;;;20.10;59.00;;;;;;4992880;28;20180;-67
2022/05/14 09:57:45;;;;;;;3.73;3.40;;;20.30;61.20;;;;;;5010663;28;20183;-67
2022/05/14 10:00:16;;;;;;;4.37;3.23;;;20.40;59.60;;;;;;5011984;28;20275;-68
2022/05/14 10:02:44;;;;;;;4.20;3.53;;;20.70;59.90;;;;;;5011913;28;20187;-68
2022/05/14 10:05:22;;;;;;;5.70;3.40;;;20.80;59.50;;;;;;5011359;28;20188;-68
2022/05/14 10:07:56;;;;;;;3.33;3.03;;;20.80;58.50;;;;;;5010207;28;20191;-68
2022/05/14 10:11:07;;;;;;;4.23;3.77;;;21.00;59.10;;;;;;5011045;28;20184;-68
2022/05/14 10:13:51;;;;;;;4.57;3.23;;;21.10;57.20;;;;;;5003152;28;20265;-68
2022/05/14 10:16:44;;;;;;;5.50;3.20;;;21.10;58.00;;;;;;5011323;28;20187;-68
2022/05/14 10:19:34;;;;;;;3.63;2.90;;;21.10;55.30;;;;;;5012229;28;20239;-68
2022/05/14 10:22:24;;;;;;;5.10;3.03;;;21.10;58.00;;;;;;5010745;28;20191;-68
2022/05/14 10:28:46;;;;;;;4.27;3.87;;;21.30;57.70;;;;;;5012292;28;20194;-68
2022/05/14 10:31:20;;;;;;;5.37;3.80;;;21.40;58.60;;;;;;4986233;28;20192;-68
2022/05/14 10:33:50;;;;;;;4.10;3.70;;;21.50;58.60;;;;;;4996247;28;20187;-68
2022/05/14 10:36:33;;;;;;;5.87;3.57;;;21.60;57.60;;;;;;4992401;28;20211;-68
2022/05/14 10:39:13;;;;;;;4.17;3.77;;;21.70;57.20;;;;;;4993565;28;20169;-69
2022/05/14 10:41:52;;;;;;;5.47;3.87;;;21.80;58.00;;;;;;5010971;28;20294;-69
2022/05/14 10:44:30;;;;;;;5.83;4.20;;;21.70;56.40;;;;;;5011571;28;20206;-69
2022/05/14 10:47:02;;;;;;;4.67;3.57;;;21.80;57.70;;;;;;5042845;28;20237;-69
2022/05/14 10:49:55;;;;;;;6.73;4.17;;;21.80;56.80;;;;;;5010345;28;20215;-69
2022/05/14 10:52:21;;;;;;;5.17;3.93;;;21.70;57.60;;;;;;5010103;28;20187;-69
2022/05/14 10:54:47;;;;;;;4.20;3.80;;;21.70;58.40;;;;;;5013405;28;20198;-69
2022/05/14 10:57:19;;;;;;;5.50;3.80;;;21.80;58.20;;;;;;5030661;28;20194;-69
2022/05/14 10:59:46;;;;;;;4.70;3.70;;;21.80;58.20;;;;;;5036470;28;20186;-69
2022/05/14 11:02:28;;;;;;;6.20;4.53;;;21.70;59.10;;;;;;5065531;28;20187;-69
2022/05/14 11:04:54;;;;;;;6.57;3.73;;;21.80;61.40;;;;;;5015932;28;20187;-69
2022/05/14 11:07:36;;;;;;;3.90;3.33;;;21.80;56.00;;;;;;5013820;28;20207;-69
2022/05/14 11:10:17;;;;;;;6.23;3.87;;;21.80;59.80;;;;;;4996006;28;20196;-69
2022/05/14 11:12:43;;;;;;;5.87;3.97;;;21.90;56.30;;;;;;4996381;28;20256;-69
2022/05/14 11:15:20;;;;;;;5.33;3.63;;;22.00;57.70;;;;;;5012356;28;20195;-69
2022/05/14 11:17:46;;;;;;;8.73;3.30;;;22.10;59.20;;;;;;5010904;28;20219;-69
2022/05/14 11:20:16;;;;;;;5.00;3.83;;;22.20;56.70;;;;;;5028367;28;20200;-69
2022/05/14 11:22:47;;;;;;;3.83;3.50;;;22.30;57.40;;;;;;5011889;28;20215;-69
2022/05/14 11:25:19;;;;;;;3.67;3.37;;;22.30;56.50;;;;;;5013943;28;20192;-69
2022/05/14 11:28:25;;;;;;;3.93;3.27;;;22.40;57.50;;;;;;5014993;28;20168;-69
2022/05/14 11:30:56;;;;;;;4.30;3.47;;;22.40;57.40;;;;;;5014976;28;20179;-69
2022/05/14 11:33:28;;;;;;;4.60;3.43;;;22.70;54.40;;;;;;5008196;28;20249;-69
2022/05/14 11:35:56;;;;;;;3.83;3.53;;;22.80;54.00;;;;;;5015403;28;20187;-69
2022/05/14 11:38:25;;;;;;;3.90;3.50;;;22.90;56.20;;;;;;5014015;28;20194;-69
2022/05/14 11:40:58;;;;;;;7.10;3.90;;;23.20;53.40;;;;;;5013152;28;20314;-69
2022/05/14 11:43:48;;;;;;;7.20;3.43;;;23.40;57.00;;;;;;5047500;28;20259;-69
2022/05/14 11:46:48;;;;;;;3.50;3.20;;;23.70;56.50;;;;;;5014169;28;20322;-69
2022/05/14 11:49:38;;;;;;;3.70;3.33;;;23.90;49.70;;;;;;5013184;28;20234;-69
2022/05/14 11:52:16;;;;;;;4.20;3.27;;;24.20;51.30;;;;;;5013388;28;20231;-69
2022/05/14 11:54:47;;;;;;;5.33;3.37;;;24.60;50.10;;;;;;5014563;28;20168;-69
2022/05/14 11:57:22;;;;;;;4.93;3.30;;;24.80;49.80;;;;;;5014255;28;20187;-69
2022/05/14 12:00:03;;;;;;;6.03;3.70;;;25.10;50.10;;;;;;5014444;28;20174;-70
2022/05/14 12:02:48;;;;;;;3.40;3.10;;;25.60;49.20;;;;;;5014888;28;20193;-70
2022/05/14 12:05:24;;;;;;;5.13;3.27;;;25.90;49.70;;;;;;5013623;28;20190;-70
2022/05/14 12:08:57;;;;;;;4.00;3.57;;;26.20;47.60;;;;;;5012524;28;20241;-70
2022/05/14 12:11:32;;;;;;;5.50;3.13;;;26.60;45.60;;;;;;4942819;28;20365;-70
2022/05/14 12:14:00;;;;;;;5.13;3.20;;;27.00;47.10;;;;;;4977813;28;20202;-69
2022/05/14 12:16:30;;;;;;;5.43;2.97;;;27.30;45.30;;;;;;5003152;28;20215;-69
2022/05/14 12:18:56;;;;;;;4.07;3.60;;;27.50;43.50;;;;;;5014820;28;20187;-69
2022/05/14 12:21:22;;;;;;;3.87;3.50;;;27.80;43.00;;;;;;5013862;28;20193;-69
2022/05/14 12:23:49;;;;;;;6.47;3.93;;;28.10;41.90;;;;;;5014467;28;20184;-69
2022/05/14 12:26:29;;;;;;;5.77;3.23;;;28.40;43.00;;;;;;5013810;28;20215;-70
2022/05/14 12:29:01;;;;;;;6.93;2.57;;;28.90;43.50;;;;;;5000056;28;20184;-70
2022/05/14 12:34:19;;;;;;;3.60;3.30;;;29.60;41.30;;;;;;5010494;28;20207;-70
2022/05/14 12:36:49;;;;;;;3.40;2.70;;;29.90;40.50;;;;;;4997007;28;20275;-70
2022/05/14 12:39:19;;;;;;;3.97;3.03;;;30.10;41.60;;;;;;5013171;28;20214;-70
2022/05/14 12:42:06;;;;;;;4.70;3.37;;;30.50;37.10;;;;;;5013432;28;20211;-70
2022/05/14 12:44:34;;;;;;;4.07;2.70;;;30.50;38.00;;;;;;5012519;28;20215;-70
2022/05/14 12:47:03;;;;;;;3.97;2.70;;;30.90;35.50;;;;;;5002452;28;20208;-70
2022/05/14 12:49:37;;;;;;;2.73;2.30;;;31.10;36.60;;;;;;5028964;28;20252;-70
2022/05/14 12:52:12;;;;;;;3.60;2.70;;;31.20;34.90;;;;;;5012184;28;20183;-70
2022/05/14 12:54:52;;;;;;;6.90;3.60;;;31.40;34.50;;;;;;4993336;28;20211;-70
2022/05/14 12:57:18;;;;;;;3.00;2.70;;;31.50;33.80;;;;;;5009415;28;20191;-70
2022/05/14 12:59:44;;;;;;;5.60;3.13;;;31.60;34.80;;;;;;4996237;28;20210;-70
2022/05/14 13:02:19;;;;;;;6.73;3.10;;;31.30;32.70;;;;;;5012989;28;20215;-70
2022/05/14 13:04:52;;;;;;;2.73;2.40;;;32.10;34.10;;;;;;5012550;28;20213;-70
2022/05/14 13:07:18;;;;;;;2.77;2.23;;;32.30;35.80;;;;;;5013051;28;20199;-70
2022/05/14 13:09:44;;;;;;;5.17;2.60;;;32.70;30.80;;;;;;5011858;28;20183;-70
2022/05/14 13:12:18;;;;;;;3.07;2.43;;;33.20;31.40;;;;;;5011031;28;20234;-70
2022/05/14 13:14:55;;;;;;;2.80;2.60;;;33.30;28.80;;;;;;5012529;28;20193;-71
2022/05/14 13:17:29;;;;;;;4.17;3.00;;;33.20;31.20;;;;;;5010730;28;20272;-70
2022/05/14 13:19:56;;;;;;;2.83;2.47;;;33.90;33.80;;;;;;5013148;28;20180;-70
2022/05/14 13:22:35;;;;;;;3.70;2.67;;;34.00;32.00;;;;;;5012529;28;20194;-70
2022/05/14 13:25:23;;;;;;;5.30;2.57;;;34.40;33.30;;;;;;5013206;28;20183;-70